This is the latest recevied weather packets stored in our database for station/object W4NRG-1. If no packets are shown the sender has not sent any weather packets the latest 10 day(s).
| Time | Temp. | Humidity | Pressure | Rain* | Wind** | Luminosity | Snow |
|---|---|---|---|---|---|---|---|
| 1778195631 | 12.78° C | 75% | 1010.9 hPa | 0 mm | - | - | - |
| 1778195328 | 12.78° C | 73% | 1011.1 hPa | 0 mm | - | - | - |
| 1778195025 | 12.78° C | 69% | 1010.7 hPa | 0 mm | - | - | - |
| 1778194724 | 12.78° C | 69% | 1010.9 hPa | 0 mm | - | - | - |
| 1778194421 | 13.33° C | 69% | 1011 hPa | 0 mm | - | - | - |
| 1778194117 | 13.89° C | 65% | 1010.9 hPa | 0 mm | - | - | - |
| 1778193814 | 13.89° C | 65% | 1010.8 hPa | 0 mm | - | - | - |
| 1778193510 | 14.44° C | 63% | 1010.9 hPa | 0 mm | - | - | - |
| 1778193206 | 14.44° C | 62% | 1010.7 hPa | 0 mm | - | - | - |
| 1778192904 | 14.44° C | 64% | 1011 hPa | 0 mm | - | - | - |
| 1778192600 | 15° C | 64% | 1010.7 hPa | 0 mm | - | - | - |
| 1778192297 | 14.44° C | 65% | 1010.6 hPa | 0 mm | - | - | - |
| 1778191994 | 13.89° C | 67% | 1010.6 hPa | 0 mm | - | - | - |
| 1778191690 | 13.33° C | 67% | 1010.9 hPa | 0 mm | - | - | - |
| 1778191389 | 13.89° C | 61% | 1010.9 hPa | 0 mm | - | - | - |
| 1778191084 | 13.89° C | 67% | 1010.9 hPa | 0 mm | - | - | - |
| 1778190782 | 14.44° C | 62% | 1011.1 hPa | 0 mm | - | - | - |
| 1778190479 | 14.44° C | 69% | 1011.2 hPa | 0 mm | - | - | - |
| 1778190176 | 13.89° C | 70% | 1011.3 hPa | 0 mm | - | - | - |
| 1778189871 | 14.44° C | 70% | 1011 hPa | 0 mm | - | - | - |
| 1778189568 | 13.89° C | 69% | 1011 hPa | 0 mm | - | - | - |
| 1778189265 | 13.33° C | 75% | 1011.3 hPa | 0 mm | - | - | - |
| 1778188961 | 12.78° C | 79% | 1011.3 hPa | 0 mm | - | - | - |
| 1778188658 | 12.22° C | 82% | 1011.2 hPa | 0 mm | - | - | - |
| 1778188354 | 12.22° C | 82% | 1011.2 hPa | 0 mm | - | - | - |
* Rain latest hour (hover to see other rain measurements)
** Current wind speed in m/s (hover to see current wind gust speed)